Time;durP1;ratioP1;P1;durP2;ratioP2;P2;SDS_P1;SDS_P2;PMS_P1;PMS_P2;Temp;Humidity;BMP_temperature;BMP_pressure;BME280_temperature;BME280_humidity;BME280_pressure;Samples;Min_cycle;Max_cycle;Signal;HPM_P1;HPM_P2
2021/03/06 00:02:16;;;;;;;16.47;8.50;;;0.70;93.40;;;;;;4989734;28;20252;-59
2021/03/06 00:04:43;;;;;;;15.17;8.40;;;0.70;93.40;;;;;;4989733;28;20206;-61
2021/03/06 00:07:12;;;;;;;16.17;8.37;;;0.70;93.50;;;;;;4970806;28;20200;-59
2021/03/06 00:09:40;;;;;;;15.90;8.60;;;0.70;93.60;;;;;;4989452;28;20449;-58
2021/03/06 00:12:06;;;;;;;19.40;8.30;;;0.70;93.80;;;;;;4989916;28;20450;-57
2021/03/06 00:14:33;;;;;;;15.67;7.87;;;0.70;93.80;;;;;;4992723;28;20459;-61
2021/03/06 00:16:59;;;;;;;17.73;8.43;;;0.70;93.90;;;;;;4987886;28;20527;-61
2021/03/06 00:19:25;;;;;;;16.57;9.00;;;0.70;93.90;;;;;;4992082;28;21764;-59
2021/03/06 00:21:51;;;;;;;18.30;9.10;;;0.70;93.90;;;;;;4987505;28;21058;-60
2021/03/06 00:24:18;;;;;;;19.23;7.93;;;0.70;94.00;;;;;;4985596;28;20226;-61
2021/03/06 00:26:44;;;;;;;17.10;9.47;;;0.70;94.20;;;;;;4990251;28;20246;-59
2021/03/06 00:29:12;;;;;;;23.00;9.33;;;0.60;94.20;;;;;;4990864;28;20473;-59
2021/03/06 00:31:39;;;;;;;15.77;9.03;;;0.60;94.40;;;;;;4989829;28;20473;-59
2021/03/06 00:34:08;;;;;;;15.93;9.30;;;0.60;94.60;;;;;;4988948;28;20442;-64
2021/03/06 00:36:33;;;;;;;14.83;8.63;;;0.60;94.70;;;;;;5002461;28;20458;-59
2021/03/06 00:39:00;;;;;;;20.33;9.97;;;0.50;94.80;;;;;;4993516;28;20432;-59
2021/03/06 00:41:25;;;;;;;15.17;8.77;;;0.50;94.80;;;;;;4988696;28;20209;-58
2021/03/06 00:43:51;;;;;;;18.50;8.80;;;0.50;95.10;;;;;;4985821;28;20442;-59
2021/03/06 00:46:18;;;;;;;15.97;8.43;;;0.50;95.10;;;;;;4992512;28;20488;-59
2021/03/06 00:48:43;;;;;;;15.30;7.77;;;0.60;94.90;;;;;;4993060;28;20418;-59
2021/03/06 00:51:10;;;;;;;13.80;8.17;;;0.60;95.00;;;;;;4990647;28;20443;-62
2021/03/06 00:53:36;;;;;;;15.70;8.10;;;0.70;95.00;;;;;;4990413;28;20552;-59
2021/03/06 00:56:02;;;;;;;20.20;10.27;;;0.70;94.80;;;;;;4985294;28;20473;-59
2021/03/06 00:58:31;;;;;;;16.07;9.67;;;0.70;94.70;;;;;;4988741;28;20443;-59
2021/03/06 01:00:57;;;;;;;14.57;8.63;;;0.80;94.70;;;;;;4985699;28;20529;-61
2021/03/06 01:03:24;;;;;;;17.70;8.83;;;0.70;94.50;;;;;;4987533;28;20846;-62
2021/03/06 01:05:49;;;;;;;16.70;9.20;;;0.70;94.60;;;;;;4987055;28;20509;-60
2021/03/06 01:08:15;;;;;;;15.20;9.27;;;0.70;94.80;;;;;;4990270;28;20436;-60
2021/03/06 01:10:43;;;;;;;16.97;9.70;;;0.70;94.50;;;;;;4987901;28;21811;-59
2021/03/06 01:13:09;;;;;;;15.07;8.37;;;0.70;94.70;;;;;;4984201;28;20639;-60
2021/03/06 01:15:36;;;;;;;18.53;9.90;;;0.60;94.80;;;;;;4988491;28;20564;-59
2021/03/06 01:18:03;;;;;;;16.70;9.77;;;0.60;94.80;;;;;;4990383;28;20441;-58
2021/03/06 01:20:29;;;;;;;14.83;9.43;;;0.60;94.80;;;;;;4989088;28;20513;-60
2021/03/06 01:22:55;;;;;;;16.70;9.40;;;0.60;94.90;;;;;;4989052;28;20445;-59
2021/03/06 01:25:20;;;;;;;16.10;8.90;;;0.50;95.10;;;;;;4990616;28;20468;-59
2021/03/06 01:27:46;;;;;;;16.13;9.03;;;0.50;95.10;;;;;;4986755;28;20183;-60
2021/03/06 01:30:13;;;;;;;15.97;8.87;;;0.50;95.10;;;;;;4987045;28;20702;-60
2021/03/06 01:32:39;;;;;;;13.17;8.77;;;0.50;95.30;;;;;;4989142;28;20434;-59
2021/03/06 01:35:09;;;;;;;17.00;9.23;;;0.50;95.40;;;;;;4988865;28;20449;-58
2021/03/06 01:37:40;;;;;;;21.90;10.60;;;0.50;95.20;;;;;;4987083;28;20559;-60
2021/03/06 01:40:11;;;;;;;15.00;7.80;;;0.40;95.30;;;;;;4991556;28;20447;-59
2021/03/06 01:42:37;;;;;;;17.03;9.30;;;0.40;95.40;;;;;;4991092;28;20811;-60
2021/03/06 01:45:04;;;;;;;17.23;9.30;;;0.50;95.50;;;;;;4981011;28;20449;-60
2021/03/06 01:47:31;;;;;;;17.20;9.20;;;0.50;95.50;;;;;;4992413;28;20461;-61
2021/03/06 01:49:57;;;;;;;20.30;9.03;;;0.50;95.50;;;;;;4990570;28;20484;-59
2021/03/06 01:52:23;;;;;;;19.80;10.40;;;0.50;95.50;;;;;;4984782;28;20442;-60
2021/03/06 01:54:50;;;;;;;15.80;8.87;;;0.40;95.50;;;;;;4994497;28;20208;-61
2021/03/06 01:57:16;;;;;;;16.00;9.30;;;0.40;95.60;;;;;;4992983;28;20497;-62
2021/03/06 01:59:42;;;;;;;17.00;9.07;;;0.40;95.60;;;;;;4984614;28;20452;-60
2021/03/06 02:02:12;;;;;;;16.10;9.03;;;0.40;95.50;;;;;;4987216;28;20938;-58
2021/03/06 02:04:40;;;;;;;14.30;8.67;;;0.40;95.60;;;;;;4989907;28;20565;-59
2021/03/06 02:07:05;;;;;;;15.53;9.57;;;0.30;95.40;;;;;;4987552;28;20448;-58
2021/03/06 02:09:31;;;;;;;16.87;9.60;;;0.30;95.40;;;;;;4985342;28;20432;-57
2021/03/06 02:12:19;;;;;;;16.27;9.73;;;0.30;95.60;;;;;;4983403;28;20227;-60
2021/03/06 02:15:12;;;;;;;17.77;9.33;;;0.30;95.40;;;;;;4987277;28;20226;-61
2021/03/06 02:17:55;;;;;;;16.20;10.23;;;0.30;95.30;;;;;;4988125;28;20465;-58
2021/03/06 02:20:44;;;;;;;16.90;10.07;;;0.30;95.10;;;;;;4988707;28;20426;-61
2021/03/06 02:23:48;;;;;;;17.10;9.67;;;0.20;95.10;;;;;;4991360;28;20488;-58
2021/03/06 02:26:50;;;;;;;17.40;9.83;;;0.20;95.30;;;;;;4981451;28;20552;-58
2021/03/06 02:29:37;;;;;;;18.17;10.13;;;0.10;95.20;;;;;;4988422;28;20469;-57
2021/03/06 02:32:09;;;;;;;16.73;10.20;;;0.10;95.20;;;;;;4980403;28;20451;-59
2021/03/06 02:34:36;;;;;;;16.67;10.23;;;0.10;95.10;;;;;;5003508;28;20446;-59
2021/03/06 02:37:06;;;;;;;13.63;9.43;;;0.00;95.00;;;;;;4992987;28;20527;-58
2021/03/06 02:39:38;;;;;;;18.23;10.23;;;0.00;95.20;;;;;;4992896;28;20429;-59
2021/03/06 02:42:05;;;;;;;17.73;10.53;;;-0.10;95.30;;;;;;4984749;28;20488;-59
2021/03/06 02:44:35;;;;;;;22.97;10.10;;;-0.10;95.30;;;;;;4988443;28;20548;-58
2021/03/06 02:47:01;;;;;;;16.30;9.73;;;-0.20;95.20;;;;;;4992700;28;20422;-59
2021/03/06 02:49:27;;;;;;;17.03;9.97;;;-0.20;95.00;;;;;;4989988;28;20445;-58
2021/03/06 02:51:55;;;;;;;16.67;9.83;;;-0.20;95.00;;;;;;4982996;28;20441;-59
2021/03/06 02:54:21;;;;;;;17.87;9.67;;;-0.30;95.00;;;;;;4990593;28;20206;-58
2021/03/06 02:56:47;;;;;;;13.27;8.40;;;-0.30;95.00;;;;;;4992318;28;20458;-56
2021/03/06 02:59:31;;;;;;;15.70;9.73;;;-0.40;94.90;;;;;;4988083;28;20187;-57
2021/03/06 03:02:17;;;;;;;14.40;9.07;;;-0.40;94.60;;;;;;4994071;28;20417;-57
2021/03/06 03:05:19;;;;;;;15.13;8.37;;;-0.40;94.20;;;;;;4992338;28;20437;-58
2021/03/06 03:07:49;;;;;;;11.60;7.80;;;-0.40;93.60;;;;;;4983164;28;20439;-57
2021/03/06 03:10:17;;;;;;;14.77;8.27;;;-0.50;93.00;;;;;;4999690;28;20426;-57
2021/03/06 03:12:55;;;;;;;11.87;7.53;;;-0.50;92.50;;;;;;4991971;28;20457;-57
2021/03/06 03:15:33;;;;;;;9.87;6.70;;;-0.50;92.20;;;;;;4993932;28;20456;-61
2021/03/06 03:18:00;;;;;;;22.87;7.60;;;-0.50;91.90;;;;;;4987136;28;20438;-57
2021/03/06 03:20:44;;;;;;;10.23;7.03;;;-0.60;91.10;;;;;;4989344;28;20421;-56
2021/03/06 03:23:13;;;;;;;11.17;6.70;;;-0.60;90.20;;;;;;4992416;28;20443;-59
2021/03/06 03:25:40;;;;;;;11.97;6.93;;;-0.60;89.20;;;;;;4982233;28;20823;-58
2021/03/06 03:28:09;;;;;;;8.30;5.80;;;-0.60;88.00;;;;;;4993590;28;21154;-60
2021/03/06 03:30:36;;;;;;;9.20;5.77;;;-0.60;87.50;;;;;;4990088;28;20457;-59
2021/03/06 03:33:08;;;;;;;9.10;6.73;;;-0.60;85.80;;;;;;4994194;28;20778;-58
2021/03/06 03:35:34;;;;;;;8.90;6.53;;;-0.60;85.20;;;;;;4986981;28;20481;-57
2021/03/06 03:38:01;;;;;;;10.83;6.20;;;-0.60;83.70;;;;;;4989043;28;20444;-58
2021/03/06 03:40:27;;;;;;;9.07;6.40;;;-0.70;82.60;;;;;;4991784;28;20433;-59
2021/03/06 03:42:56;;;;;;;8.87;6.23;;;-0.70;82.40;;;;;;4988707;28;20482;-58
2021/03/06 03:45:22;;;;;;;10.03;6.90;;;-0.70;83.10;;;;;;4991672;28;20450;-58
2021/03/06 03:47:48;;;;;;;9.90;6.43;;;-0.70;82.40;;;;;;4991821;28;20547;-57
2021/03/06 03:50:16;;;;;;;10.93;6.90;;;-0.70;82.80;;;;;;4994711;28;20464;-57
2021/03/06 03:52:44;;;;;;;10.33;6.83;;;-0.70;81.80;;;;;;4985934;28;20948;-58
2021/03/06 03:55:10;;;;;;;9.17;6.67;;;-0.80;81.60;;;;;;4994839;28;20889;-58
2021/03/06 03:57:37;;;;;;;9.50;6.37;;;-0.80;81.90;;;;;;4988872;28;20464;-61
2021/03/06 04:00:11;;;;;;;17.60;7.17;;;-0.80;81.00;;;;;;4991408;28;20526;-58
2021/03/06 04:02:37;;;;;;;11.20;7.13;;;-0.80;81.00;;;;;;4982231;28;20422;-57
2021/03/06 04:05:07;;;;;;;10.30;6.60;;;-0.80;81.70;;;;;;4988313;28;20993;-61
2021/03/06 04:07:50;;;;;;;9.20;6.93;;;-0.90;82.50;;;;;;4990174;28;20729;-59
2021/03/06 04:10:19;;;;;;;10.43;6.87;;;-0.90;82.90;;;;;;4987368;28;20931;-58
2021/03/06 04:12:46;;;;;;;9.10;6.97;;;-0.90;83.80;;;;;;4987911;28;20456;-57
2021/03/06 04:15:16;;;;;;;11.87;7.07;;;-0.90;84.30;;;;;;4986904;28;20466;-57
2021/03/06 04:17:42;;;;;;;11.97;7.27;;;-1.00;84.80;;;;;;4990772;28;20469;-58
2021/03/06 04:20:09;;;;;;;14.97;7.97;;;-1.00;85.50;;;;;;4993136;28;20437;-57
2021/03/06 04:22:35;;;;;;;10.07;7.00;;;-1.00;86.20;;;;;;4990539;28;20437;-58
2021/03/06 04:25:01;;;;;;;11.70;7.90;;;-1.00;86.60;;;;;;4987535;28;20543;-57
2021/03/06 04:27:27;;;;;;;11.80;7.60;;;-1.00;87.30;;;;;;4987706;28;20471;-57
2021/03/06 04:29:53;;;;;;;15.60;8.93;;;-1.00;87.50;;;;;;4970271;28;20197;-62
2021/03/06 04:32:21;;;;;;;14.93;7.80;;;-1.00;87.90;;;;;;4986330;28;20197;-62
2021/03/06 04:34:47;;;;;;;13.30;8.20;;;-1.00;88.30;;;;;;4989093;28;20198;-57
2021/03/06 04:37:13;;;;;;;13.00;7.67;;;-1.00;89.10;;;;;;4990001;28;20486;-59
2021/03/06 04:39:39;;;;;;;15.57;8.37;;;-1.00;90.00;;;;;;4970534;28;20741;-58
2021/03/06 04:42:05;;;;;;;14.70;8.33;;;-1.10;90.20;;;;;;4991020;28;20671;-62
2021/03/06 04:44:30;;;;;;;12.00;7.43;;;-1.00;90.30;;;;;;4987480;28;20460;-57
2021/03/06 04:46:57;;;;;;;12.83;8.23;;;-1.10;90.40;;;;;;4990671;28;20340;-57
2021/03/06 04:49:22;;;;;;;14.90;9.17;;;-1.10;90.60;;;;;;4982975;28;20659;-57
2021/03/06 04:51:49;;;;;;;14.33;8.17;;;-1.10;90.90;;;;;;4991097;28;20444;-60
2021/03/06 04:54:16;;;;;;;16.47;8.43;;;-1.10;90.90;;;;;;4985124;28;20456;-58
2021/03/06 04:56:41;;;;;;;13.50;7.97;;;-1.10;90.90;;;;;;4991952;28;20453;-59
2021/03/06 04:59:07;;;;;;;14.43;8.93;;;-1.10;91.20;;;;;;4964800;28;20442;-58
2021/03/06 05:01:33;;;;;;;17.40;8.87;;;-1.10;91.50;;;;;;4985660;28;20188;-59
2021/03/06 05:03:58;;;;;;;13.90;8.90;;;-1.10;91.60;;;;;;4999443;28;20259;-61
2021/03/06 05:06:24;;;;;;;12.13;8.47;;;-1.10;91.60;;;;;;5009311;28;20486;-60
2021/03/06 05:08:50;;;;;;;16.33;8.97;;;-1.10;91.60;;;;;;5008370;28;20199;-64
2021/03/06 05:11:16;;;;;;;16.53;8.87;;;-1.20;91.60;;;;;;5005023;28;20199;-62
2021/03/06 05:13:42;;;;;;;16.37;8.87;;;-1.20;91.90;;;;;;5008978;28;20204;-62
2021/03/06 05:16:08;;;;;;;14.40;8.63;;;-1.20;92.00;;;;;;5009740;28;20489;-60
2021/03/06 05:18:34;;;;;;;12.50;8.73;;;-1.20;92.10;;;;;;5014102;28;20197;-58
2021/03/06 05:20:59;;;;;;;18.53;9.37;;;-1.20;92.10;;;;;;4999064;28;20451;-58
2021/03/06 05:23:28;;;;;;;13.33;8.60;;;-1.20;92.40;;;;;;4986247;28;20660;-58
2021/03/06 05:25:54;;;;;;;13.60;8.50;;;-1.20;92.40;;;;;;4989812;28;20761;-59
2021/03/06 05:28:21;;;;;;;15.57;9.57;;;-1.30;92.30;;;;;;4987742;28;20460;-63
2021/03/06 05:30:47;;;;;;;16.30;9.40;;;-1.30;92.60;;;;;;4988961;28;20452;-60
2021/03/06 05:33:14;;;;;;;15.40;9.33;;;-1.30;92.90;;;;;;4988274;28;20429;-61
2021/03/06 05:35:40;;;;;;;16.83;8.83;;;-1.30;93.00;;;;;;4981396;28;20286;-58
2021/03/06 05:38:06;;;;;;;14.10;7.90;;;-1.30;93.10;;;;;;4989302;28;20437;-57
2021/03/06 05:40:37;;;;;;;17.30;8.97;;;-1.40;93.10;;;;;;4986581;28;20440;-58
2021/03/06 05:43:03;;;;;;;17.57;8.77;;;-1.30;93.20;;;;;;4982706;28;21245;-58
2021/03/06 05:45:29;;;;;;;14.70;8.87;;;-1.40;93.20;;;;;;4988025;28;20534;-57
2021/03/06 05:47:57;;;;;;;14.87;8.10;;;-1.40;93.40;;;;;;4990538;28;20462;-59
2021/03/06 05:50:23;;;;;;;15.43;9.40;;;-1.40;93.50;;;;;;4991274;28;20435;-58
2021/03/06 05:52:50;;;;;;;18.97;10.10;;;-1.40;93.60;;;;;;4985182;28;20424;-58
2021/03/06 05:55:18;;;;;;;16.43;9.70;;;-1.40;93.80;;;;;;4995624;28;20452;-58
2021/03/06 05:57:44;;;;;;;15.57;8.53;;;-1.40;93.90;;;;;;4986890;28;20972;-60
2021/03/06 06:00:11;;;;;;;22.23;9.00;;;-1.40;93.80;;;;;;4989579;28;20871;-59
2021/03/06 06:02:37;;;;;;;14.40;8.53;;;-1.40;93.90;;;;;;4985701;28;20404;-57
2021/03/06 06:05:04;;;;;;;15.87;8.67;;;-1.40;93.90;;;;;;4985759;28;20523;-58
2021/03/06 06:07:34;;;;;;;17.57;10.40;;;-1.40;93.80;;;;;;4991606;28;20436;-58
2021/03/06 06:10:00;;;;;;;17.10;9.00;;;-1.40;93.80;;;;;;4990811;28;20439;-59
2021/03/06 06:12:26;;;;;;;16.07;9.73;;;-1.40;93.90;;;;;;4984463;28;20458;-62
2021/03/06 06:14:55;;;;;;;17.83;9.83;;;-1.40;94.10;;;;;;4990707;28;20210;-59
2021/03/06 06:17:22;;;;;;;17.87;10.27;;;-1.40;94.10;;;;;;4990351;28;20472;-60
2021/03/06 06:19:49;;;;;;;17.00;9.53;;;-1.40;94.10;;;;;;4995346;28;20461;-57
2021/03/06 06:22:22;;;;;;;16.73;9.70;;;-1.40;94.10;;;;;;4996351;28;20441;-58
2021/03/06 06:24:51;;;;;;;19.63;10.07;;;-1.30;94.20;;;;;;4993840;28;20552;-60
2021/03/06 06:27:24;;;;;;;20.33;10.47;;;-1.30;94.10;;;;;;4994750;28;20532;-58
2021/03/06 06:29:51;;;;;;;20.53;10.50;;;-1.30;94.20;;;;;;4998833;28;20443;-57
2021/03/06 06:32:22;;;;;;;17.90;9.90;;;-1.40;94.20;;;;;;4992425;28;20440;-58
2021/03/06 06:35:01;;;;;;;19.80;10.43;;;-1.40;94.20;;;;;;4991469;28;20458;-58
2021/03/06 06:37:30;;;;;;;19.73;9.97;;;-1.40;94.30;;;;;;5013374;28;20454;-58
2021/03/06 06:39:57;;;;;;;17.97;9.97;;;-1.40;94.40;;;;;;4991664;28;20438;-58
2021/03/06 06:42:33;;;;;;;16.77;8.97;;;-1.40;94.40;;;;;;4993569;28;20437;-62
2021/03/06 06:45:00;;;;;;;18.43;9.77;;;-1.40;94.40;;;;;;4988187;28;20455;-60
2021/03/06 06:47:42;;;;;;;19.77;9.50;;;-1.40;94.40;;;;;;4995336;28;20442;-59
2021/03/06 06:50:10;;;;;;;17.13;8.87;;;-1.30;94.30;;;;;;5003085;28;20527;-59
2021/03/06 06:52:41;;;;;;;17.47;10.20;;;-1.20;94.20;;;;;;4992474;28;20433;-58
2021/03/06 06:55:09;;;;;;;17.57;9.90;;;-1.10;94.00;;;;;;4992409;28;20507;-60
2021/03/06 06:57:52;;;;;;;21.20;11.27;;;-1.10;93.90;;;;;;4996527;28;20469;-60
2021/03/06 07:00:21;;;;;;;22.60;10.13;;;-1.10;93.80;;;;;;5001862;28;20782;-57
2021/03/06 07:02:55;;;;;;;19.00;10.80;;;-1.00;93.70;;;;;;4999850;28;20428;-61
2021/03/06 07:05:37;;;;;;;20.17;9.43;;;-0.90;93.60;;;;;;4989139;28;20831;-59
2021/03/06 07:08:19;;;;;;;17.93;9.87;;;-0.80;93.40;;;;;;4982984;28;20449;-60
2021/03/06 07:10:45;;;;;;;17.63;10.00;;;-0.80;93.20;;;;;;4988192;28;21018;-60
2021/03/06 07:13:12;;;;;;;17.00;9.27;;;-0.70;93.30;;;;;;4990627;28;20437;-58
2021/03/06 07:15:39;;;;;;;20.67;10.67;;;-0.60;93.00;;;;;;4991572;28;20461;-59
2021/03/06 07:18:06;;;;;;;16.10;9.40;;;-0.60;92.70;;;;;;4983917;28;20566;-59
2021/03/06 07:20:42;;;;;;;15.83;9.27;;;-0.50;92.60;;;;;;4993185;28;20497;-59
2021/03/06 07:23:21;;;;;;;17.47;9.47;;;-0.40;92.60;;;;;;4987807;28;20449;-61
2021/03/06 07:25:59;;;;;;;22.90;10.57;;;-0.30;92.20;;;;;;4985345;28;20479;-57
2021/03/06 07:28:25;;;;;;;19.40;9.90;;;-0.30;91.90;;;;;;4982883;28;20534;-59
2021/03/06 07:30:51;;;;;;;16.10;9.53;;;-0.10;91.60;;;;;;4981819;28;21064;-59
2021/03/06 07:33:18;;;;;;;19.63;10.00;;;-0.10;90.80;;;;;;4997295;28;20190;-59
2021/03/06 07:35:46;;;;;;;15.60;10.30;;;0.00;90.80;;;;;;4983299;28;20644;-59
2021/03/06 07:38:15;;;;;;;18.37;9.60;;;0.00;90.50;;;;;;4983228;28;20429;-59
2021/03/06 07:40:44;;;;;;;16.07;9.93;;;0.00;90.50;;;;;;4983992;28;20433;-59
2021/03/06 07:43:14;;;;;;;20.03;10.07;;;0.10;90.20;;;;;;4990821;28;20429;-60
2021/03/06 07:45:45;;;;;;;16.90;8.93;;;0.20;90.00;;;;;;4993566;28;20441;-58
2021/03/06 07:48:19;;;;;;;17.70;9.93;;;0.20;89.60;;;;;;4987796;28;20492;-59
2021/03/06 07:50:48;;;;;;;16.93;9.40;;;0.30;88.70;;;;;;4990766;28;20449;-58
2021/03/06 07:53:15;;;;;;;16.17;10.40;;;0.30;88.80;;;;;;4981098;28;20443;-61
2021/03/06 07:55:41;;;;;;;15.70;9.33;;;0.40;89.00;;;;;;4989933;28;20906;-58
2021/03/06 07:58:14;;;;;;;16.43;9.33;;;0.50;89.70;;;;;;4983998;28;21020;-59
2021/03/06 08:00:40;;;;;;;15.30;9.17;;;0.50;89.00;;;;;;4986342;28;21313;-60
2021/03/06 08:03:26;;;;;;;25.13;10.27;;;0.60;87.10;;;;;;4988681;28;20441;-59
2021/03/06 08:05:53;;;;;;;17.60;9.60;;;0.70;86.20;;;;;;4995825;28;20476;-61
2021/03/06 08:08:35;;;;;;;18.67;10.00;;;0.80;83.20;;;;;;4979070;28;20850;-60
2021/03/06 08:11:11;;;;;;;15.87;9.50;;;0.80;84.10;;;;;;4980215;28;20426;-61
2021/03/06 08:13:39;;;;;;;18.90;9.27;;;0.90;83.90;;;;;;4986623;28;20430;-61
2021/03/06 08:16:33;;;;;;;16.93;9.70;;;0.90;83.10;;;;;;4990313;28;20458;-59
2021/03/06 08:19:12;;;;;;;14.20;8.57;;;1.00;82.40;;;;;;4983317;28;21950;-60
2021/03/06 08:21:40;;;;;;;17.10;9.53;;;1.10;82.10;;;;;;4987762;28;20804;-59
2021/03/06 08:24:15;;;;;;;17.90;10.37;;;1.20;80.70;;;;;;4993334;28;20505;-59
2021/03/06 08:27:02;;;;;;;19.60;9.97;;;1.30;79.10;;;;;;4997692;28;20554;-59
2021/03/06 08:29:27;;;;;;;16.43;9.10;;;1.30;80.90;;;;;;4980752;28;20492;-59
2021/03/06 08:32:03;;;;;;;18.70;9.80;;;1.40;85.40;;;;;;4983711;28;20442;-59
2021/03/06 08:34:49;;;;;;;18.30;10.00;;;1.60;84.80;;;;;;4985394;28;20600;-60
2021/03/06 08:39:43;;;;;;;21.03;10.47;;;2.00;77.60;;;;;;4987993;28;20427;-60
2021/03/06 08:42:10;;;;;;;16.37;8.90;;;2.00;74.40;;;;;;4990051;28;20427;-62
2021/03/06 08:44:36;;;;;;;15.53;9.20;;;1.90;72.30;;;;;;4997335;28;20485;-59
2021/03/06 08:47:03;;;;;;;18.07;9.53;;;1.90;70.70;;;;;;4988519;28;20533;-59
2021/03/06 08:49:31;;;;;;;16.10;8.50;;;1.80;70.60;;;;;;4992433;28;20476;-62
2021/03/06 08:51:57;;;;;;;15.80;9.77;;;1.80;70.10;;;;;;4991486;28;20450;-61
2021/03/06 08:54:23;;;;;;;16.47;10.33;;;1.80;70.50;;;;;;4992111;28;20462;-62
2021/03/06 08:56:49;;;;;;;16.03;9.10;;;1.80;70.80;;;;;;4983706;28;20465;-62
2021/03/06 08:59:15;;;;;;;19.63;11.50;;;1.90;70.70;;;;;;4988659;28;20438;-61
2021/03/06 09:01:42;;;;;;;15.10;9.27;;;2.00;70.80;;;;;;4980508;28;20445;-60
2021/03/06 09:04:09;;;;;;;15.20;9.47;;;2.00;71.20;;;;;;4988217;28;20531;-60
2021/03/06 09:06:39;;;;;;;18.70;9.40;;;2.10;71.30;;;;;;4988250;28;20484;-61
2021/03/06 09:09:09;;;;;;;14.77;9.60;;;2.20;70.50;;;;;;4985163;28;20436;-61
2021/03/06 09:11:53;;;;;;;14.27;9.30;;;2.30;70.70;;;;;;4989901;28;20466;-60
2021/03/06 09:14:19;;;;;;;16.57;9.90;;;2.30;69.70;;;;;;4983036;28;20444;-60
2021/03/06 09:16:49;;;;;;;15.47;8.57;;;2.40;70.20;;;;;;4983386;28;20979;-62
2021/03/06 09:19:29;;;;;;;16.10;9.57;;;2.50;67.70;;;;;;4983360;28;20648;-61
2021/03/06 09:22:03;;;;;;;15.90;8.77;;;2.60;66.80;;;;;;4984864;28;21023;-60
2021/03/06 09:24:47;;;;;;;14.03;9.10;;;2.60;65.70;;;;;;4983919;28;20466;-61
2021/03/06 09:27:14;;;;;;;12.80;7.53;;;2.70;63.00;;;;;;4994026;28;20452;-63
2021/03/06 09:29:41;;;;;;;15.40;8.90;;;2.80;61.10;;;;;;4998450;28;20437;-64
2021/03/06 09:32:08;;;;;;;13.20;8.40;;;2.90;63.50;;;;;;4988156;28;20443;-60
2021/03/06 09:34:34;;;;;;;11.77;8.13;;;3.00;64.20;;;;;;4988005;28;20577;-62
2021/03/06 09:37:16;;;;;;;15.57;9.13;;;3.10;63.30;;;;;;4988494;28;21118;-61
2021/03/06 09:39:42;;;;;;;13.63;8.47;;;3.30;63.30;;;;;;4985888;28;20173;-62
2021/03/06 09:42:08;;;;;;;12.33;7.80;;;3.40;61.00;;;;;;4989174;28;20482;-60
2021/03/06 09:44:35;;;;;;;13.27;8.33;;;3.50;61.50;;;;;;4985835;28;20451;-60
2021/03/06 09:47:01;;;;;;;12.27;7.40;;;3.60;61.30;;;;;;4985509;28;20443;-62
2021/03/06 09:49:35;;;;;;;14.87;8.50;;;3.70;59.20;;;;;;4986879;28;20435;-60
2021/03/06 09:52:01;;;;;;;10.33;7.40;;;3.90;58.60;;;;;;4988573;28;20527;-63
2021/03/06 09:54:34;;;;;;;12.30;7.80;;;4.00;58.00;;;;;;4989617;28;20452;-61
2021/03/06 09:57:01;;;;;;;12.80;7.67;;;4.10;56.80;;;;;;4989506;28;20463;-61
2021/03/06 09:59:29;;;;;;;8.70;6.73;;;4.30;54.60;;;;;;4985921;28;20470;-63
2021/03/06 10:02:11;;;;;;;11.93;7.60;;;4.40;53.50;;;;;;4984936;28;20936;-60
2021/03/06 10:04:37;;;;;;;13.03;8.07;;;4.50;53.70;;;;;;4988602;28;20444;-63
2021/03/06 10:07:09;;;;;;;15.57;8.63;;;4.60;52.60;;;;;;4990687;28;20433;-61
2021/03/06 10:09:35;;;;;;;10.30;6.90;;;4.60;51.60;;;;;;4987004;28;20447;-60
2021/03/06 10:12:06;;;;;;;10.20;6.77;;;4.70;51.20;;;;;;4984993;28;20531;-65
2021/03/06 10:14:32;;;;;;;14.73;8.40;;;4.70;50.70;;;;;;4999095;28;20950;-59
2021/03/06 10:17:00;;;;;;;15.57;7.00;;;4.70;50.60;;;;;;4987258;28;20448;-61
2021/03/06 10:19:31;;;;;;;11.63;7.10;;;4.70;50.70;;;;;;4980304;28;20431;-60
2021/03/06 10:22:05;;;;;;;11.47;7.43;;;4.80;50.20;;;;;;4984383;28;20467;-60
2021/03/06 10:24:49;;;;;;;9.40;6.97;;;4.90;50.50;;;;;;4987892;28;20438;-61
2021/03/06 10:27:14;;;;;;;15.63;8.03;;;5.00;50.30;;;;;;4987880;28;20494;-60
2021/03/06 10:29:40;;;;;;;10.10;7.37;;;5.10;50.80;;;;;;4983186;28;20447;-60
2021/03/06 10:32:06;;;;;;;8.80;6.87;;;5.20;50.60;;;;;;4985081;28;20276;-59
2021/03/06 10:34:34;;;;;;;10.07;7.03;;;5.30;49.10;;;;;;4981892;28;20463;-61
2021/03/06 10:37:16;;;;;;;11.70;7.23;;;5.40;49.00;;;;;;4987732;28;20456;-60
2021/03/06 10:39:55;;;;;;;13.27;7.30;;;5.40;48.50;;;;;;4996571;28;20548;-62
2021/03/06 10:42:23;;;;;;;10.37;7.80;;;5.50;48.80;;;;;;4983593;28;21163;-61
2021/03/06 10:44:49;;;;;;;13.70;6.93;;;5.60;48.40;;;;;;4999685;28;20463;-58
2021/03/06 10:47:16;;;;;;;8.60;6.40;;;5.60;48.00;;;;;;4984482;28;20437;-60
2021/03/06 10:49:47;;;;;;;11.40;7.10;;;5.70;47.40;;;;;;4982743;28;20426;-61
2021/03/06 10:52:27;;;;;;;8.67;6.73;;;5.70;46.80;;;;;;4982193;28;20519;-61
2021/03/06 10:54:56;;;;;;;10.90;6.53;;;5.70;47.00;;;;;;4984457;28;20459;-60
2021/03/06 10:57:22;;;;;;;10.13;7.00;;;5.70;47.50;;;;;;4986135;28;20482;-63
2021/03/06 10:59:48;;;;;;;11.67;7.20;;;5.90;47.90;;;;;;4984659;28;20479;-61
2021/03/06 11:02:26;;;;;;;13.17;7.10;;;6.00;48.00;;;;;;4987843;28;20436;-60
2021/03/06 11:04:52;;;;;;;10.80;7.57;;;6.20;47.50;;;;;;4986129;28;20477;-63
2021/03/06 11:07:29;;;;;;;11.77;6.63;;;6.30;46.80;;;;;;4980636;28;20436;-61
2021/03/06 11:09:59;;;;;;;10.30;6.30;;;6.40;46.50;;;;;;4982509;28;20182;-59
2021/03/06 11:12:30;;;;;;;8.57;6.20;;;6.60;46.00;;;;;;4985643;28;20479;-61
2021/03/06 11:15:09;;;;;;;10.33;7.10;;;6.70;45.90;;;;;;4981040;28;20821;-60
2021/03/06 11:17:37;;;;;;;10.87;7.83;;;6.90;45.20;;;;;;4981202;28;20462;-63
2021/03/06 11:20:05;;;;;;;10.10;6.90;;;7.00;45.20;;;;;;4983582;28;20432;-65
2021/03/06 11:22:31;;;;;;;12.27;7.50;;;7.30;45.90;;;;;;4982476;28;21172;-60
2021/03/06 11:25:00;;;;;;;11.67;6.87;;;7.50;44.90;;;;;;4975941;28;20461;-62
2021/03/06 11:27:26;;;;;;;9.33;6.83;;;7.70;45.10;;;;;;4986466;28;20558;-62
2021/03/06 11:29:52;;;;;;;14.83;6.73;;;8.00;44.00;;;;;;4980639;28;20490;-60
2021/03/06 11:32:20;;;;;;;10.10;7.60;;;8.20;44.10;;;;;;4982828;28;21110;-59
2021/03/06 11:34:46;;;;;;;11.20;6.70;;;8.60;43.50;;;;;;4978792;28;20189;-61
2021/03/06 11:37:12;;;;;;;10.70;7.27;;;9.10;43.40;;;;;;4977643;28;20460;-59
2021/03/06 11:39:38;;;;;;;8.07;6.70;;;9.50;41.60;;;;;;4978078;28;20454;-60
2021/03/06 11:42:07;;;;;;;8.60;6.37;;;9.90;40.70;;;;;;4974974;28;20185;-62
2021/03/06 11:44:34;;;;;;;10.23;7.20;;;10.40;39.30;;;;;;4977785;28;20216;-60
2021/03/06 11:47:00;;;;;;;14.17;8.30;;;10.90;38.50;;;;;;4975358;28;20475;-62
2021/03/06 11:49:26;;;;;;;17.03;8.00;;;11.20;37.00;;;;;;4981078;28;20688;-62
2021/03/06 11:51:51;;;;;;;12.63;8.07;;;11.40;37.10;;;;;;4987984;28;20187;-62
2021/03/06 11:54:19;;;;;;;11.93;7.80;;;11.70;37.00;;;;;;4979584;28;20205;-62
2021/03/06 11:56:44;;;;;;;11.63;8.60;;;12.20;36.00;;;;;;5008335;28;20250;-61
2021/03/06 11:59:10;;;;;;;14.20;9.00;;;12.50;35.10;;;;;;4992408;28;20440;-62
2021/03/06 12:01:36;;;;;;;13.30;8.67;;;12.80;34.40;;;;;;4986943;28;20181;-62
2021/03/06 12:04:02;;;;;;;12.00;8.03;;;13.00;33.20;;;;;;4981387;28;20440;-61
2021/03/06 12:06:27;;;;;;;9.87;7.80;;;13.40;33.00;;;;;;4987282;28;20196;-62
2021/03/06 12:08:53;;;;;;;9.20;7.20;;;13.70;32.00;;;;;;4990555;28;20177;-62
2021/03/06 12:11:19;;;;;;;14.10;7.37;;;14.00;32.00;;;;;;4989251;28;20549;-62
2021/03/06 12:13:45;;;;;;;9.57;7.20;;;14.10;31.30;;;;;;4991420;28;20216;-62
2021/03/06 12:16:10;;;;;;;9.93;6.57;;;14.10;30.80;;;;;;4991147;28;20197;-61
2021/03/06 12:18:36;;;;;;;8.03;6.40;;;14.00;30.20;;;;;;4996699;28;20171;-63
2021/03/06 12:21:01;;;;;;;8.83;6.40;;;13.90;30.10;;;;;;4992003;28;20256;-63
2021/03/06 12:23:27;;;;;;;7.70;6.20;;;13.90;30.20;;;;;;4986870;28;20653;-61
2021/03/06 12:25:53;;;;;;;8.83;6.50;;;13.90;30.50;;;;;;4988808;28;20209;-62
2021/03/06 12:28:19;;;;;;;7.67;6.33;;;13.80;30.30;;;;;;4991372;28;20305;-59
2021/03/06 12:30:44;;;;;;;7.73;6.20;;;13.70;29.80;;;;;;4989862;28;20204;-60
2021/03/06 12:33:10;;;;;;;6.47;5.80;;;13.70;30.00;;;;;;4987750;28;20189;-61
2021/03/06 12:35:37;;;;;;;7.70;6.43;;;13.70;30.00;;;;;;4987012;28;20459;-63
2021/03/06 12:38:02;;;;;;;7.00;6.13;;;13.60;29.90;;;;;;4990872;28;20467;-60
2021/03/06 12:40:28;;;;;;;6.93;6.13;;;13.50;30.00;;;;;;4987722;28;20176;-64
2021/03/06 12:42:54;;;;;;;8.07;6.00;;;13.30;30.50;;;;;;4988606;28;20173;-62
2021/03/06 12:45:19;;;;;;;6.90;6.20;;;13.30;30.70;;;;;;5006250;28;20569;-61
2021/03/06 12:47:45;;;;;;;9.27;6.60;;;13.40;30.70;;;;;;4988726;28;20683;-61
2021/03/06 12:50:15;;;;;;;7.70;6.33;;;13.40;30.10;;;;;;4991157;28;20187;-60
2021/03/06 12:52:41;;;;;;;8.17;6.50;;;13.30;30.00;;;;;;4988109;28;20192;-63
2021/03/06 12:55:07;;;;;;;6.40;5.10;;;13.30;30.00;;;;;;4989742;28;20534;-64
2021/03/06 12:57:33;;;;;;;7.97;5.87;;;13.30;29.80;;;;;;4987884;28;20491;-63